METAR Data
IDs: Format: Raw Decoded Include TAF

Data at: 1320 UTC 10 Aug 2022

KRBL 101254Z AUTO 10005KT 10SM CLR 18/11 A3000 RMK AO2 SLP154 T01780106
KRBL 101154Z AUTO 11004KT 10SM CLR 18/10 A2998 RMK AO2 SLP149 T01830100 10261 20183 51012
KRBL 101054Z AUTO 21005KT 10SM CLR 19/10 A2997 RMK AO2 SLP145 T01890100
KRBL 100954Z AUTO 22005KT 10SM CLR 19/09 A2996 RMK AO2 SLP142 T01940094
KRBL 100854Z AUTO 20006KT 10SM CLR 22/08 A2995 RMK AO2 SLP137 T02170083 51017
KRBL 100754Z AUTO 14014G19KT 10SM CLR 24/07 A2993 RMK AO2 SLP130 T02390072 403500189
KRBL 100654Z AUTO 14014KT 10SM CLR 25/08 A2992 RMK AO2 SLP127 T02500083
KRBL 100554Z AUTO 14014G20KT 10SM CLR 26/09 A2990 RMK AO2 SLP120 T02610089 10344 20261 53024
KRBL 100454Z AUTO 15014KT 10SM CLR 28/07 A2987 RMK AO2 SLP110 T02780072
KRBL 100354Z AUTO 15015KT 10SM CLR 29/07 A2984 RMK AO2 SLP101 T02890072
KRBL 100254Z AUTO 15012G20KT 10SM CLR 31/08 A2982 RMK AO2 SLP095 T03060078 55001
KRBL 100154Z AUTO 14021KT 10SM CLR 33/07 A2981 RMK AO2 PK WND 14026/0113 SLP091 T03280067
KRBL 100054Z AUTO 16018KT 10SM CLR 34/06 A2982 RMK AO2 SLP094 T03440061
KRBL 092354Z AUTO 17018KT 10SM CLR 34/08 A2983 RMK AO2 PK WND 13026/2256 SLP096 T03390078 10350 20267 56018
KRBL 092254Z AUTO 14018KT 10SM CLR 34/06 A2984 RMK AO2 PK WND 15026/2240 SLP099 T03440056
KRBL 092154Z AUTO 12015KT 10SM CLR 34/09 A2986 RMK AO2 SLP107 T03390094
KRBL 092054Z AUTO 15009G17KT 10SM CLR 32/11 A2988 RMK AO2 SLP113 T03220111 58017
KRBL 091954Z AUTO 14013G17KT 10SM CLR 31/11 A2990 RMK AO2 SLP121 T03110111
KRBL 091854Z AUTO 12006KT 10SM CLR 29/11 A2992 RMK AO2 SLP126 T02890106
KRBL 091754Z AUTO 15007KT 10SM CLR 27/11 A2993 RMK AO2 SLP131 T02670111 10267 20189 58001
KRBL 091654Z AUTO 14011KT 10SM CLR 25/11 A2993 RMK AO2 SLP133 T02500111
KRBL 091554Z AUTO 14009KT 10SM CLR 23/11 A2994 RMK AO2 SLP135 T02330111
KRBL 091454Z AUTO 15003KT 10SM CLR 21/12 A2993 RMK AO2 SLP132 T02060117 53011
KRBL 091354Z AUTO 18003KT 10SM CLR 19/11 A2992 RMK AO2 SLP128 T01940111
KRBL 091254Z AUTO 15004KT 10SM CLR 20/11 A2991 RMK AO2 SLP122 T02000111
KRBL 091154Z AUTO 16004KT 10SM CLR 21/11 A2990 RMK AO2 SLP120 T02060106 10267 20206 53007
KRBL 091054Z AUTO 13004KT 10SM CLR 22/11 A2989 RMK AO2 SLP117 T02170106
KRBL 090954Z AUTO 16003KT 10SM CLR 22/10 A2988 RMK AO2 SLP114 T02220100
KRBL 090854Z AUTO 19003KT 10SM CLR 23/09 A2988 RMK AO2 SLP112 T02330094 51003
KRBL 090754Z AUTO 21004KT 10SM CLR 24/10 A2988 RMK AO2 SLP112 T02440100 403610183
KRBL 090654Z AUTO 00000KT 10SM CLR 25/09 A2987 RMK AO2 SLP111 T02500094
KRBL 090554Z AUTO 00000KT 10SM CLR 27/09 A2987 RMK AO2 SLP110 T02670094 10361 20261 51014
KRBL 090454Z AUTO 20004KT 10SM CLR 28/09 A2986 RMK AO2 SLP109 T02780089
KRBL 090354Z AUTO 20006KT 10SM CLR 28/07 A2985 RMK AO2 SLP103 T02830072
KRBL 090254Z AUTO 17010KT 10SM CLR 33/02 A2983 RMK AO2 SLP097 T03280022 55003
KRBL 090154Z AUTO 17012KT 10SM CLR 34/02 A2983 RMK AO2 SLP096 T03440017